createdAt,value
2023-01-09T00:01:30.164Z,58.80
2023-01-09T00:03:58.317Z,58.80
2023-01-09T00:06:28.143Z,58.80
2023-01-09T00:08:56.316Z,58.80
2023-01-09T00:11:24.461Z,58.80
2023-01-09T00:13:52.725Z,58.80
2023-01-09T00:16:20.972Z,58.80
2023-01-09T00:18:49.183Z,58.90
2023-01-09T00:21:17.480Z,58.90
2023-01-09T00:23:47.155Z,58.80
2023-01-09T00:26:17.804Z,58.80
2023-01-09T00:28:46.420Z,58.90
2023-01-09T00:31:15.136Z,58.90
2023-01-09T00:33:45.809Z,58.90
2023-01-09T00:36:14.307Z,59.00
2023-01-09T00:38:42.429Z,59.10
2023-01-09T00:41:16.159Z,59.00
2023-01-09T00:43:46.596Z,59.10
2023-01-09T00:46:15.909Z,59.10
2023-01-09T00:48:46.580Z,59.10
2023-01-09T00:51:15.673Z,59.00
2023-01-09T00:53:44.583Z,59.00
2023-01-09T00:56:19.360Z,58.90
2023-01-09T00:58:50.355Z,58.90
2023-01-09T01:01:18.591Z,58.90
2023-01-09T01:03:46.866Z,58.90
2023-01-09T01:06:32.486Z,58.80
2023-01-09T01:09:00.615Z,58.80
2023-01-09T01:11:30.155Z,58.60
2023-01-09T01:13:59.137Z,58.60
2023-01-09T01:16:27.575Z,58.60
2023-01-09T01:18:55.725Z,58.50
2023-01-09T01:21:23.878Z,58.50
2023-01-09T01:23:52.052Z,58.50
2023-01-09T01:26:20.200Z,58.40
2023-01-09T01:28:49.684Z,58.40
2023-01-09T01:31:19.726Z,58.40
2023-01-09T01:33:48.202Z,58.40
2023-01-09T01:36:17.605Z,58.40
2023-01-09T01:38:47.485Z,58.40
2023-01-09T01:41:29.327Z,58.30
2023-01-09T01:44:00.992Z,58.30
2023-01-09T01:46:29.597Z,58.30
2023-01-09T01:49:03.135Z,58.20
2023-01-09T01:51:33.073Z,58.20
2023-01-09T01:54:07.577Z,58.10
2023-01-09T01:56:39.092Z,58.10
2023-01-09T01:59:15.556Z,58.10
2023-01-09T02:01:46.960Z,58.10
2023-01-09T02:04:15.275Z,58.10
2023-01-09T02:06:45.394Z,58.10
2023-01-09T02:09:15.326Z,58.10
2023-01-09T02:11:46.735Z,58.00
2023-01-09T02:14:17.306Z,58.10
2023-01-09T02:16:54.234Z,58.00
2023-01-09T02:19:51.111Z,57.90
2023-01-09T02:22:27.219Z,58.00
2023-01-09T02:25:20.808Z,58.00
2023-01-09T02:28:23.244Z,57.80
2023-01-09T02:30:58.425Z,57.80
2023-01-09T02:33:38.071Z,57.90
2023-01-09T02:36:17.290Z,58.00
2023-01-09T02:38:55.106Z,58.10
2023-01-09T02:41:27.903Z,58.00
2023-01-09T02:44:13.445Z,58.00
2023-01-09T02:46:42.989Z,57.90
2023-01-09T02:49:11.570Z,57.80
2023-01-09T02:51:48.536Z,57.90
2023-01-09T02:54:24.936Z,57.80
2023-01-09T02:57:17.630Z,57.90
2023-01-09T03:00:03.087Z,57.90
2023-01-09T03:02:45.495Z,57.90
2023-01-09T03:05:22.061Z,57.80
2023-01-09T03:07:57.050Z,57.80
2023-01-09T03:10:33.195Z,57.80
2023-01-09T03:13:03.373Z,57.90
2023-01-09T03:15:35.439Z,57.90
2023-01-09T03:18:06.825Z,57.90
2023-01-09T03:20:35.767Z,57.90
2023-01-09T03:23:06.917Z,57.90
2023-01-09T03:25:35.434Z,57.90
2023-01-09T03:28:06.257Z,57.80
2023-01-09T03:30:36.254Z,57.80
2023-01-09T03:33:05.828Z,57.80
2023-01-09T03:35:33.935Z,57.70
2023-01-09T03:38:02.076Z,57.70
2023-01-09T03:40:30.181Z,57.70
2023-01-09T03:42:58.325Z,57.60
2023-01-09T03:45:26.531Z,57.60
2023-01-09T03:47:54.747Z,57.60
2023-01-09T03:50:24.284Z,57.60
2023-01-09T03:52:52.423Z,57.60
2023-01-09T03:55:20.485Z,57.60
2023-01-09T03:57:48.591Z,57.60
2023-01-09T04:00:20.997Z,57.60
2023-01-09T04:02:49.835Z,57.60
2023-01-09T04:05:18.181Z,57.60
2023-01-09T04:07:47.654Z,57.60
2023-01-09T04:10:15.763Z,57.60
2023-01-09T04:12:43.919Z,57.70
2023-01-09T04:15:12.559Z,57.70
2023-01-09T04:17:40.678Z,57.80
2023-01-09T04:20:10.073Z,57.80
2023-01-09T04:22:38.555Z,57.80
2023-01-09T04:25:09.061Z,57.80
2023-01-09T04:27:37.300Z,57.90
2023-01-09T04:30:06.659Z,57.90
2023-01-09T04:32:34.773Z,57.90
2023-01-09T04:35:02.947Z,57.90
2023-01-09T04:37:31.032Z,58.00
2023-01-09T04:39:59.158Z,57.90
2023-01-09T04:42:28.656Z,57.90
2023-01-09T04:44:56.758Z,57.90
2023-01-09T04:47:24.873Z,57.90
2023-01-09T04:49:53.085Z,57.90
2023-01-09T04:52:21.182Z,57.80
2023-01-09T04:54:50.074Z,57.80
2023-01-09T04:57:18.765Z,57.80
2023-01-09T04:59:48.251Z,57.70
2023-01-09T05:02:16.458Z,57.70
2023-01-09T05:04:44.640Z,57.80
2023-01-09T05:07:12.831Z,57.70
2023-01-09T05:09:41.020Z,57.70
2023-01-09T05:12:09.322Z,57.70
2023-01-09T05:14:37.497Z,57.70
2023-01-09T05:17:06.981Z,57.70
2023-01-09T05:19:35.401Z,57.60
2023-01-09T05:22:03.539Z,57.50
2023-01-09T05:24:31.640Z,57.60
2023-01-09T05:26:59.757Z,57.60
2023-01-09T05:29:27.869Z,57.60
2023-01-09T05:31:56.066Z,57.50
2023-01-09T05:34:25.707Z,57.50
2023-01-09T05:36:53.883Z,57.50
2023-01-09T05:39:22.104Z,57.50
2023-01-09T05:41:50.253Z,57.50
2023-01-09T05:44:18.538Z,57.40
2023-01-09T05:46:46.704Z,57.30
2023-01-09T05:49:14.821Z,57.50
2023-01-09T05:51:44.424Z,57.50
2023-01-09T05:54:12.560Z,57.40
2023-01-09T05:56:40.760Z,57.70
2023-01-09T05:59:08.933Z,58.00
2023-01-09T06:01:37.164Z,58.10
2023-01-09T06:04:05.460Z,58.30
2023-01-09T06:06:33.676Z,58.40
2023-01-09T06:09:03.658Z,58.30
2023-01-09T06:11:31.849Z,58.80
2023-01-09T06:13:59.965Z,58.90
2023-01-09T06:16:28.150Z,59.00
2023-01-09T06:18:56.576Z,59.10
2023-01-09T06:21:25.009Z,59.10
2023-01-09T06:23:53.208Z,59.30
2023-01-09T06:26:22.713Z,59.20
2023-01-09T06:28:50.917Z,59.40
2023-01-09T06:31:19.224Z,59.50
2023-01-09T06:33:47.473Z,59.60
2023-01-09T06:36:16.162Z,59.70
2023-01-09T06:38:44.646Z,59.70
2023-01-09T06:41:13.104Z,59.70
2023-01-09T06:43:42.604Z,59.70
2023-01-09T06:46:11.089Z,59.80
2023-01-09T06:48:39.262Z,59.80
2023-01-09T06:51:07.431Z,59.80
2023-01-09T06:53:36.113Z,59.90
2023-01-09T06:56:04.363Z,59.90
2023-01-09T06:58:32.483Z,59.90
2023-01-09T07:01:02.120Z,59.70
2023-01-09T07:03:31.475Z,59.60
2023-01-09T07:06:01.154Z,59.70
2023-01-09T07:08:29.560Z,59.60
2023-01-09T07:10:57.708Z,59.60
2023-01-09T07:13:25.857Z,59.60
2023-01-09T07:15:54.551Z,59.30
2023-01-09T07:18:24.162Z,59.60
2023-01-09T07:20:52.566Z,59.70
2023-01-09T07:23:20.708Z,59.80
2023-01-09T07:25:50.880Z,59.70
2023-01-09T07:28:19.130Z,59.70
2023-01-09T07:30:47.301Z,59.70
2023-01-09T07:33:15.503Z,59.70
2023-01-09T07:35:45.031Z,59.70
2023-01-09T07:38:13.352Z,59.60
2023-01-09T07:40:41.483Z,59.80
2023-01-09T07:43:09.632Z,59.80
2023-01-09T07:45:37.828Z,59.80
2023-01-09T07:48:07.093Z,60.30
2023-01-09T07:50:35.556Z,60.60
2023-01-09T07:53:05.131Z,61.20
2023-01-09T07:55:33.224Z,62.00
2023-01-09T07:58:01.345Z,62.20
2023-01-09T08:00:32.449Z,62.60
2023-01-09T08:03:01.652Z,62.80
2023-01-09T08:05:29.822Z,63.00
2023-01-09T08:07:57.977Z,63.10
2023-01-09T08:10:27.512Z,63.20
2023-01-09T08:12:55.722Z,63.30
2023-01-09T08:15:24.289Z,63.30
2023-01-09T08:17:52.584Z,63.30
2023-01-09T08:20:21.054Z,62.80
2023-01-09T08:22:53.567Z,62.40
2023-01-09T08:25:22.316Z,62.30
2023-01-09T08:27:51.964Z,62.60
2023-01-09T08:30:20.295Z,63.20
2023-01-09T08:32:51.433Z,62.80
2023-01-09T08:35:20.003Z,62.70
2023-01-09T08:37:49.353Z,62.30
2023-01-09T08:40:18.384Z,62.50
2023-01-09T08:43:04.623Z,62.00
2023-01-09T08:45:51.538Z,62.20
2023-01-09T08:48:19.690Z,62.50
2023-01-09T08:50:47.851Z,62.70
2023-01-09T08:53:16.473Z,62.40
2023-01-09T08:55:44.818Z,62.30
2023-01-09T08:58:13.209Z,61.80
2023-01-09T09:00:42.773Z,62.30
2023-01-09T09:03:11.949Z,61.80
2023-01-09T09:05:40.154Z,61.90
2023-01-09T09:08:08.312Z,61.50
2023-01-09T09:10:36.584Z,61.40
2023-01-09T09:13:04.903Z,61.50
2023-01-09T09:15:34.338Z,60.90
2023-01-09T09:18:05.952Z,61.60
2023-01-09T09:20:36.568Z,61.40
2023-01-09T09:23:05.598Z,61.90
2023-01-09T09:25:33.728Z,61.20
2023-01-09T09:28:02.329Z,61.60
2023-01-09T09:30:30.523Z,61.00
2023-01-09T09:32:58.762Z,61.60
2023-01-09T09:35:28.562Z,61.20
2023-01-09T09:37:58.428Z,61.40
2023-01-09T09:40:41.305Z,61.30
2023-01-09T09:43:50.687Z,61.10
2023-01-09T09:46:32.566Z,61.00
2023-01-09T09:49:07.015Z,61.20
2023-01-09T09:51:49.912Z,61.20
2023-01-09T09:54:25.859Z,60.90
2023-01-09T09:56:57.805Z,60.80
2023-01-09T09:59:30.698Z,60.40
2023-01-09T10:02:03.486Z,60.80
2023-01-09T10:04:37.936Z,60.60
2023-01-09T10:07:12.010Z,60.40
2023-01-09T10:09:48.394Z,60.60
2023-01-09T10:12:28.931Z,60.30
2023-01-09T10:14:59.063Z,60.00
2023-01-09T10:17:44.402Z,60.20
2023-01-09T10:20:40.390Z,60.00
2023-01-09T10:23:21.582Z,59.80
2023-01-09T10:25:57.627Z,60.00
2023-01-09T10:28:49.818Z,60.00
2023-01-09T10:31:27.037Z,60.10
2023-01-09T10:34:06.870Z,60.10
2023-01-09T10:36:52.172Z,60.00
2023-01-09T10:39:26.809Z,59.90
2023-01-09T10:41:59.375Z,59.60
2023-01-09T10:44:34.719Z,59.90
2023-01-09T10:47:05.412Z,59.90
2023-01-09T10:49:33.531Z,60.10
2023-01-09T10:52:15.676Z,59.80
2023-01-09T10:54:53.303Z,59.90
2023-01-09T10:57:42.627Z,59.80
2023-01-09T11:00:18.791Z,60.30
2023-01-09T11:02:47.868Z,60.10
2023-01-09T11:05:20.552Z,60.10
2023-01-09T11:07:54.429Z,59.90
2023-01-09T11:10:23.918Z,59.70
2023-01-09T11:12:52.045Z,59.60
2023-01-09T11:15:31.253Z,59.80
2023-01-09T11:18:19.239Z,60.10
2023-01-09T11:20:47.585Z,59.80
2023-01-09T11:23:27.109Z,59.80
2023-01-09T11:25:58.411Z,59.90
2023-01-09T11:28:26.780Z,59.60
2023-01-09T11:30:57.789Z,59.40
2023-01-09T11:33:27.632Z,59.30
2023-01-09T11:36:16.020Z,60.00
2023-01-09T11:38:51.016Z,59.20
2023-01-09T11:41:23.383Z,59.30
2023-01-09T11:43:54.011Z,59.10
2023-01-09T11:46:34.275Z,59.70
2023-01-09T11:49:04.413Z,59.80
2023-01-09T11:51:34.244Z,59.50
2023-01-09T11:54:20.242Z,59.10
2023-01-09T11:56:51.277Z,59.10
2023-01-09T11:59:22.181Z,59.20
2023-01-09T12:02:29.423Z,59.00
2023-01-09T12:05:01.186Z,58.70
2023-01-09T12:08:06.015Z,58.60
2023-01-09T12:11:09.061Z,58.50
2023-01-09T12:13:52.019Z,58.90
2023-01-09T12:16:30.926Z,59.20
2023-01-09T12:19:12.097Z,59.10
2023-01-09T12:21:49.676Z,59.10
2023-01-09T12:24:54.126Z,59.20
2023-01-09T12:27:32.333Z,59.60
2023-01-09T12:30:17.922Z,59.70
2023-01-09T12:32:55.971Z,59.40
2023-01-09T12:35:34.622Z,59.90
2023-01-09T12:38:23.526Z,59.60
2023-01-09T12:41:09.462Z,59.80
2023-01-09T12:43:48.726Z,59.70
2023-01-09T12:46:20.844Z,59.20
2023-01-09T12:49:17.485Z,59.80
2023-01-09T12:51:49.945Z,59.70
2023-01-09T12:54:25.722Z,59.90
2023-01-09T12:56:58.630Z,60.00
2023-01-09T12:59:34.360Z,59.70
2023-01-09T13:02:18.052Z,59.40
2023-01-09T13:04:53.311Z,59.60
2023-01-09T13:07:25.026Z,59.50
2023-01-09T13:09:58.909Z,59.50
2023-01-09T13:12:28.733Z,58.90
2023-01-09T13:15:01.663Z,59.60
2023-01-09T13:17:36.394Z,59.90
2023-01-09T13:20:19.651Z,60.10
2023-01-09T13:22:51.095Z,60.00
2023-01-09T13:25:44.967Z,60.30
2023-01-09T13:28:19.752Z,60.00
2023-01-09T13:31:14.824Z,59.80
2023-01-09T13:33:50.703Z,60.00
2023-01-09T13:36:27.050Z,59.90
2023-01-09T13:38:57.442Z,60.00
2023-01-09T13:41:46.088Z,60.40
2023-01-09T13:44:24.844Z,60.40
2023-01-09T13:46:55.309Z,60.50
2023-01-09T13:50:21.811Z,60.20
2023-01-09T13:52:50.100Z,60.50
2023-01-09T13:55:37.211Z,60.60
2023-01-09T13:58:23.875Z,60.90
2023-01-09T14:00:57.235Z,61.00
2023-01-09T14:03:31.308Z,60.90
2023-01-09T14:06:19.155Z,60.80
2023-01-09T14:08:50.039Z,60.70
2023-01-09T14:11:24.092Z,60.90
2023-01-09T14:14:08.275Z,61.00
2023-01-09T14:16:39.284Z,61.10
2023-01-09T14:19:22.240Z,61.20
2023-01-09T14:21:56.371Z,61.20
2023-01-09T14:24:28.746Z,61.20
2023-01-09T14:26:59.219Z,61.00
2023-01-09T14:29:45.721Z,61.00
2023-01-09T14:32:43.444Z,61.00
2023-01-09T14:35:19.186Z,61.00
2023-01-09T14:38:00.644Z,61.00
2023-01-09T14:40:29.414Z,60.80
2023-01-09T14:43:02.260Z,60.80
2023-01-09T14:45:32.664Z,60.70
2023-01-09T14:48:06.218Z,60.70
2023-01-09T14:50:38.001Z,60.60
2023-01-09T14:53:12.785Z,60.30
2023-01-09T14:55:51.368Z,60.20
2023-01-09T14:58:27.298Z,60.30
2023-01-09T15:01:01.388Z,60.40
2023-01-09T15:03:34.297Z,60.40
2023-01-09T15:06:03.072Z,60.60
2023-01-09T15:08:33.874Z,60.60
2023-01-09T15:11:03.587Z,60.60
2023-01-09T15:13:42.553Z,60.50
2023-01-09T15:16:18.780Z,60.50
2023-01-09T15:18:49.722Z,60.10
2023-01-09T15:21:22.998Z,60.20
2023-01-09T15:23:52.712Z,60.50
2023-01-09T15:26:27.708Z,60.80
2023-01-09T15:29:03.130Z,60.90
2023-01-09T15:31:32.018Z,60.90
2023-01-09T15:34:00.475Z,61.20
2023-01-09T15:36:31.008Z,60.40
2023-01-09T15:39:01.208Z,60.60
2023-01-09T15:41:48.623Z,61.30
2023-01-09T15:44:20.451Z,60.90
2023-01-09T15:46:53.937Z,60.90
2023-01-09T15:49:22.762Z,60.90
2023-01-09T15:51:52.503Z,61.30
2023-01-09T15:54:30.459Z,60.70
2023-01-09T15:57:37.330Z,61.40
2023-01-09T16:00:46.067Z,61.80
2023-01-09T16:03:23.831Z,62.00
2023-01-09T16:05:58.038Z,62.30
2023-01-09T16:08:30.479Z,61.80
2023-01-09T16:11:04.433Z,61.70
2023-01-09T16:13:35.557Z,61.80
2023-01-09T16:16:04.875Z,62.10
2023-01-09T16:18:37.278Z,62.30
2023-01-09T16:21:28.396Z,62.10
2023-01-09T16:23:58.986Z,62.40
2023-01-09T16:26:30.346Z,62.40
2023-01-09T16:29:26.958Z,62.50
2023-01-09T16:32:00.529Z,62.40
2023-01-09T16:34:28.883Z,62.50
2023-01-09T16:36:57.246Z,62.30
2023-01-09T16:39:25.592Z,62.50
2023-01-09T16:42:15.742Z,62.40
2023-01-09T16:44:44.096Z,62.60
2023-01-09T16:47:13.382Z,62.60
2023-01-09T16:49:41.609Z,62.60
2023-01-09T16:52:17.258Z,62.70
2023-01-09T16:54:46.897Z,62.40
2023-01-09T16:57:18.962Z,62.40
2023-01-09T16:59:47.518Z,62.50
2023-01-09T17:02:19.105Z,62.60
2023-01-09T17:04:47.630Z,62.50
2023-01-09T17:07:17.627Z,62.60
2023-01-09T17:09:46.393Z,62.30
2023-01-09T17:12:20.303Z,61.90
2023-01-09T17:14:48.739Z,62.40
2023-01-09T17:17:17.472Z,62.00
2023-01-09T17:19:46.743Z,62.20
2023-01-09T17:22:15.572Z,62.10
2023-01-09T17:25:00.936Z,62.30
2023-01-09T17:27:51.657Z,62.30
2023-01-09T17:30:20.433Z,62.30
2023-01-09T17:32:49.044Z,62.10
2023-01-09T17:35:17.697Z,62.30
2023-01-09T17:37:46.055Z,62.40
2023-01-09T17:40:19.739Z,62.50
2023-01-09T17:42:49.319Z,62.50
2023-01-09T17:45:17.619Z,62.50
2023-01-09T17:47:45.780Z,62.50
2023-01-09T17:50:20.695Z,62.50
2023-01-09T17:52:49.392Z,62.50
2023-01-09T17:55:17.662Z,62.50
2023-01-09T17:57:46.001Z,62.50
2023-01-09T18:00:26.171Z,62.50
2023-01-09T18:02:54.998Z,62.50
2023-01-09T18:05:23.367Z,62.40
2023-01-09T18:07:51.956Z,62.40
2023-01-09T18:10:24.243Z,62.10
2023-01-09T18:12:54.036Z,62.20
2023-01-09T18:15:24.858Z,62.10
2023-01-09T18:17:53.422Z,62.10
2023-01-09T18:20:21.653Z,62.00
2023-01-09T18:22:49.913Z,62.00
2023-01-09T18:25:18.128Z,62.00
2023-01-09T18:27:46.572Z,62.10
2023-01-09T18:30:14.844Z,61.80
2023-01-09T18:32:44.327Z,61.50
2023-01-09T18:35:12.472Z,61.20
2023-01-09T18:37:40.579Z,61.00
2023-01-09T18:40:10.256Z,60.60
2023-01-09T18:42:39.230Z,60.70
2023-01-09T18:45:08.681Z,60.90
2023-01-09T18:47:36.809Z,61.10
2023-01-09T18:50:07.084Z,61.30
2023-01-09T18:52:35.184Z,61.30
2023-01-09T18:55:03.312Z,61.30
2023-01-09T18:57:31.479Z,61.30
2023-01-09T18:59:59.619Z,61.50
2023-01-09T19:02:27.923Z,61.50
2023-01-09T19:04:56.094Z,61.70
2023-01-09T19:07:25.602Z,61.70
2023-01-09T19:09:53.828Z,62.00
2023-01-09T19:12:21.950Z,62.40
2023-01-09T19:14:50.175Z,62.50
2023-01-09T19:17:18.303Z,62.50
2023-01-09T19:19:46.417Z,62.70
2023-01-09T19:22:15.097Z,62.60
2023-01-09T19:24:44.612Z,62.60
2023-01-09T19:27:12.859Z,62.40
2023-01-09T19:29:41.030Z,62.20
2023-01-09T19:32:09.202Z,62.70
2023-01-09T19:34:37.370Z,62.60
2023-01-09T19:37:07.093Z,62.00
2023-01-09T19:39:37.670Z,62.30
2023-01-09T19:42:07.217Z,62.40
2023-01-09T19:44:35.383Z,62.20
2023-01-09T19:47:03.522Z,62.20
2023-01-09T19:49:32.225Z,62.30
2023-01-09T19:52:00.792Z,62.20
2023-01-09T19:54:30.387Z,62.10
2023-01-09T19:56:58.565Z,62.00
2023-01-09T19:59:28.130Z,62.10
2023-01-09T20:01:56.300Z,62.20
2023-01-09T20:04:26.749Z,62.00
2023-01-09T20:06:54.884Z,62.00
2023-01-09T20:09:25.752Z,62.10
2023-01-09T20:11:53.900Z,62.20
2023-01-09T20:14:22.622Z,62.20
2023-01-09T20:16:54.154Z,62.20
2023-01-09T20:19:22.574Z,62.10
2023-01-09T20:21:50.685Z,61.90
2023-01-09T20:24:18.806Z,61.80
2023-01-09T20:26:47.269Z,62.00
2023-01-09T20:29:17.473Z,61.70
2023-01-09T20:31:45.807Z,62.20
2023-01-09T20:34:16.366Z,62.10
2023-01-09T20:36:44.628Z,62.40
2023-01-09T20:39:13.241Z,62.70
2023-01-09T20:41:41.728Z,62.70
2023-01-09T20:44:14.152Z,62.90
2023-01-09T20:46:44.782Z,62.70
2023-01-09T20:49:16.038Z,63.00
2023-01-09T20:51:46.730Z,63.10
2023-01-09T20:54:14.876Z,63.10
2023-01-09T20:56:42.993Z,62.90
2023-01-09T20:59:13.221Z,63.20
2023-01-09T21:01:41.811Z,63.10
2023-01-09T21:04:10.318Z,63.20
2023-01-09T21:06:40.140Z,63.20
2023-01-09T21:09:08.445Z,63.30
2023-01-09T21:11:36.686Z,63.30
2023-01-09T21:14:04.875Z,63.30
2023-01-09T21:16:33.190Z,63.30
2023-01-09T21:19:01.375Z,63.30
2023-01-09T21:21:30.027Z,63.50
2023-01-09T21:24:01.585Z,63.50
2023-01-09T21:26:31.524Z,63.50
2023-01-09T21:29:01.282Z,63.40
2023-01-09T21:31:34.641Z,63.40
2023-01-09T21:34:05.375Z,63.30
2023-01-09T21:36:35.310Z,63.30
2023-01-09T21:39:08.165Z,63.20
2023-01-09T21:41:53.715Z,63.20
2023-01-09T21:44:39.118Z,63.00
2023-01-09T21:47:07.279Z,63.00
2023-01-09T21:49:36.213Z,62.90
2023-01-09T21:52:05.245Z,62.80
2023-01-09T21:54:35.212Z,62.80
2023-01-09T21:57:04.110Z,62.60
2023-01-09T21:59:32.436Z,62.50
2023-01-09T22:02:01.027Z,62.40
2023-01-09T22:04:30.519Z,62.20
2023-01-09T22:06:58.786Z,62.20
2023-01-09T22:09:27.178Z,62.10
2023-01-09T22:11:57.533Z,62.00
2023-01-09T22:14:25.658Z,62.00
2023-01-09T22:16:53.822Z,61.90
2023-01-09T22:19:22.011Z,61.90
2023-01-09T22:21:50.293Z,61.80
2023-01-09T22:24:21.594Z,61.80
2023-01-09T22:26:49.805Z,61.70
2023-01-09T22:29:19.314Z,61.80
2023-01-09T22:31:47.844Z,61.80
2023-01-09T22:34:17.470Z,61.80
2023-01-09T22:36:46.374Z,61.70
2023-01-09T22:39:16.350Z,61.70
2023-01-09T22:41:44.859Z,61.70
2023-01-09T22:44:13.893Z,61.70
2023-01-09T22:46:43.464Z,61.70
2023-01-09T22:49:12.307Z,61.60
2023-01-09T22:51:40.723Z,61.50
2023-01-09T22:54:09.159Z,61.40
2023-01-09T22:56:37.514Z,61.60
2023-01-09T22:59:05.628Z,61.70
2023-01-09T23:01:33.835Z,61.60
2023-01-09T23:04:04.017Z,61.40
2023-01-09T23:06:32.225Z,61.50
2023-01-09T23:09:00.375Z,61.10
2023-01-09T23:11:48.336Z,61.40
2023-01-09T23:14:16.496Z,61.30
2023-01-09T23:16:45.054Z,61.20
2023-01-09T23:19:15.708Z,61.10
2023-01-09T23:21:44.351Z,61.20
2023-01-09T23:24:13.303Z,61.10
2023-01-09T23:26:42.582Z,61.10
2023-01-09T23:29:11.934Z,61.00
2023-01-09T23:31:40.210Z,61.00
2023-01-09T23:34:09.102Z,61.00
2023-01-09T23:36:38.638Z,60.80
2023-01-09T23:39:09.045Z,61.00
2023-01-09T23:41:54.778Z,61.00
2023-01-09T23:44:23.032Z,61.00
2023-01-09T23:46:51.640Z,61.00
2023-01-09T23:49:19.858Z,61.00
2023-01-09T23:51:49.428Z,61.00
2023-01-09T23:54:17.683Z,61.00
2023-01-09T23:56:45.933Z,61.00
2023-01-09T23:59:14.973Z,61.00
